createdAt,value
2019-04-22T00:00:08.562Z,61.40
2019-04-22T00:00:44.837Z,61.50
2019-04-22T00:01:23.178Z,61.30
2019-04-22T00:01:57.866Z,61.80
2019-04-22T00:02:29.913Z,62.00
2019-04-22T00:03:09.159Z,61.90
2019-04-22T00:03:47.436Z,61.60
2019-04-22T00:04:26.992Z,61.20
2019-04-22T00:05:01.055Z,61.20
2019-04-22T00:05:49.136Z,61.30
2019-04-22T00:06:25.292Z,61.40
2019-04-22T00:06:57.441Z,61.30
2019-04-22T00:07:38.883Z,61.20
2019-04-22T00:08:09.091Z,61.40
2019-04-22T00:08:44.881Z,61.40
2019-04-22T00:09:24.167Z,61.30
2019-04-22T00:09:58.492Z,61.40
2019-04-22T00:10:32.348Z,61.20
2019-04-22T00:11:14.397Z,61.20
2019-04-22T00:11:46.651Z,61.40
2019-04-22T00:12:22.333Z,61.60
2019-04-22T00:12:53.040Z,61.60
2019-04-22T00:13:37.035Z,61.20
2019-04-22T00:14:00.912Z,61.50
2019-04-22T00:14:35.206Z,61.40
2019-04-22T00:15:10.168Z,61.10
2019-04-22T00:15:41.849Z,61.30
2019-04-22T00:16:27.563Z,61.20
2019-04-22T00:16:58.545Z,60.70
2019-04-22T00:17:46.508Z,60.70
2019-04-22T00:18:16.458Z,60.90
2019-04-22T00:19:01.831Z,60.90
2019-04-22T00:19:20.892Z,61.10
2019-04-22T00:19:57.598Z,61.10
2019-04-22T00:20:30.449Z,61.10
2019-04-22T00:21:04.730Z,61.40
2019-04-22T00:21:39.153Z,61.50
2019-04-22T00:22:18.581Z,61.70
2019-04-22T00:22:44.398Z,62.00
2019-04-22T00:23:24.675Z,61.80
2019-04-22T00:23:59.053Z,61.70
2019-04-22T00:24:36.658Z,61.60
2019-04-22T00:25:17.666Z,61.90
2019-04-22T00:25:49.411Z,62.40
2019-04-22T00:26:26.084Z,62.20
2019-04-22T00:26:58.062Z,62.30
2019-04-22T00:27:34.331Z,62.40
2019-04-22T00:28:08.563Z,62.10
2019-04-22T00:28:43.796Z,62.20
2019-04-22T00:29:39.549Z,62.20
2019-04-22T00:30:40.666Z,62.60
2019-04-22T00:31:13.097Z,62.70
2019-04-22T00:31:53.070Z,62.90
2019-04-22T00:32:41.796Z,63.00
2019-04-22T00:33:29.077Z,62.70
2019-04-22T00:34:06.144Z,62.90
2019-04-22T00:34:48.367Z,62.80
2019-04-22T00:35:18.096Z,62.90
2019-04-22T00:35:54.962Z,62.70
2019-04-22T00:36:35.262Z,63.00
2019-04-22T00:37:11.003Z,62.80
2019-04-22T00:37:54.174Z,63.00
2019-04-22T00:38:26.558Z,63.00
2019-04-22T00:38:58.827Z,62.90
2019-04-22T00:39:37.183Z,62.70
2019-04-22T00:40:12.862Z,62.40
2019-04-22T00:40:45.064Z,62.70
2019-04-22T00:41:23.335Z,63.00
2019-04-22T00:41:56.498Z,63.00
2019-04-22T00:42:36.345Z,62.90
2019-04-22T00:43:07.058Z,62.80
2019-04-22T00:43:39.518Z,62.70
2019-04-22T00:44:22.263Z,62.90
2019-04-22T00:44:57.841Z,62.90
2019-04-22T00:45:29.705Z,63.10
2019-04-22T00:45:59.052Z,63.20
2019-04-22T00:46:38.969Z,63.20
2019-04-22T00:47:16.350Z,63.30
2019-04-22T00:47:45.658Z,63.30
2019-04-22T00:48:38.358Z,63.40
2019-04-22T00:49:33.158Z,63.70
2019-04-22T00:50:25.447Z,63.80
2019-04-22T00:50:46.341Z,64.00
2019-04-22T00:51:22.660Z,64.20
2019-04-22T00:52:03.709Z,64.40
2019-04-22T00:53:11.661Z,64.60
2019-04-22T00:53:39.165Z,64.70
2019-04-22T00:54:18.060Z,64.80
2019-04-22T00:54:53.175Z,65.00
2019-04-22T00:55:28.648Z,65.00
2019-04-22T00:56:11.292Z,65.10
2019-04-22T00:56:40.641Z,65.30
2019-04-22T00:57:15.701Z,65.40
2019-04-22T00:57:56.219Z,65.40
2019-04-22T00:58:32.426Z,65.60
2019-04-22T00:59:06.575Z,65.60
2019-04-22T00:59:40.371Z,65.80
2019-04-22T01:00:17.717Z,66.00
2019-04-22T01:00:57.551Z,66.00
2019-04-22T01:01:23.887Z,66.20
2019-04-22T01:02:07.568Z,65.30
2019-04-22T01:02:41.617Z,66.00
2019-04-22T01:03:19.675Z,65.90
2019-04-22T01:04:31.151Z,65.70
2019-04-22T01:05:00.906Z,65.50
2019-04-22T01:05:34.205Z,65.50
2019-04-22T01:06:14.553Z,65.80
2019-04-22T01:06:38.635Z,65.70
2019-04-22T01:07:17.647Z,65.50
2019-04-22T01:08:04.010Z,65.70
2019-04-22T01:08:45.231Z,65.80
2019-04-22T01:09:10.756Z,65.50
2019-04-22T01:09:46.522Z,65.50
2019-04-22T01:10:20.389Z,65.60
2019-04-22T01:10:52.693Z,65.30
2019-04-22T01:11:29.146Z,65.70
2019-04-22T01:12:04.068Z,65.70
2019-04-22T01:12:39.543Z,65.60
2019-04-22T01:13:11.386Z,65.60
2019-04-22T01:13:44.288Z,65.60
2019-04-22T01:14:25.009Z,66.00
2019-04-22T01:15:05.753Z,66.10
2019-04-22T01:15:36.795Z,66.10
2019-04-22T01:16:13.992Z,66.00
2019-04-22T01:16:43.007Z,65.90
2019-04-22T01:17:21.171Z,66.20
2019-04-22T01:17:53.012Z,66.30
2019-04-22T01:18:27.943Z,66.10
2019-04-22T01:19:07.635Z,65.90
2019-04-22T01:19:45.167Z,65.90
2019-04-22T01:20:39.063Z,66.00
2019-04-22T01:21:10.625Z,66.50
2019-04-22T01:21:36.353Z,66.80
2019-04-22T01:22:06.684Z,66.40
2019-04-22T01:22:34.291Z,66.50
2019-04-22T01:23:10.941Z,66.30
2019-04-22T01:23:49.149Z,66.40
2019-04-22T01:24:22.071Z,66.30
2019-04-22T01:24:57.593Z,65.90
2019-04-22T01:25:34.139Z,66.40
2019-04-22T01:26:08.062Z,66.80
2019-04-22T01:26:39.989Z,66.50
2019-04-22T01:27:16.019Z,66.60
2019-04-22T01:27:48.872Z,66.90
2019-04-22T01:28:26.787Z,67.20
2019-04-22T01:29:02.475Z,67.10
2019-04-22T01:29:39.702Z,66.90
2019-04-22T01:30:09.695Z,67.10
2019-04-22T01:30:43.869Z,67.20
2019-04-22T01:31:17.887Z,67.10
2019-04-22T01:31:49.085Z,67.00
2019-04-22T01:32:30.350Z,66.90
2019-04-22T01:33:05.716Z,67.00
2019-04-22T01:33:40.110Z,67.00
2019-04-22T01:34:23.362Z,67.00
2019-04-22T01:34:59.863Z,67.10
2019-04-22T01:35:34.843Z,67.00
2019-04-22T01:36:13.913Z,67.10
2019-04-22T01:36:48.382Z,67.20
2019-04-22T01:37:21.789Z,67.60
2019-04-22T01:37:58.939Z,67.70
2019-04-22T01:38:31.439Z,67.60
2019-04-22T01:39:13.516Z,67.50
2019-04-22T01:39:49.852Z,67.30
2019-04-22T01:40:28.142Z,67.30
2019-04-22T01:40:59.735Z,67.10
2019-04-22T01:41:32.424Z,67.20
2019-04-22T01:42:05.659Z,67.60
2019-04-22T01:42:54.029Z,67.50
2019-04-22T01:43:16.768Z,67.50
2019-04-22T01:44:00.299Z,67.60
2019-04-22T01:44:33.250Z,67.50
2019-04-22T01:45:10.703Z,67.60
2019-04-22T01:45:39.339Z,67.70
2019-04-22T01:46:18.407Z,67.80
2019-04-22T01:46:58.201Z,67.90
2019-04-22T01:47:32.483Z,68.00
2019-04-22T01:48:05.387Z,68.00
2019-04-22T01:48:39.361Z,68.10
2019-04-22T01:49:55.984Z,68.10
2019-04-22T01:50:26.543Z,68.20
2019-04-22T01:50:54.827Z,68.30
2019-04-22T01:51:48.583Z,68.10
2019-04-22T01:52:14.057Z,68.10
2019-04-22T01:52:50.280Z,68.10
2019-04-22T01:53:22.682Z,68.20
2019-04-22T01:53:58.061Z,68.50
2019-04-22T01:54:38.385Z,68.30
2019-04-22T01:55:10.606Z,67.90
2019-04-22T01:55:38.082Z,67.70
2019-04-22T01:56:13.551Z,67.30
2019-04-22T01:56:49.387Z,67.90
2019-04-22T01:57:18.132Z,67.50
2019-04-22T01:57:53.924Z,67.70
2019-04-22T01:58:28.991Z,67.80
2019-04-22T01:58:59.038Z,68.10
2019-04-22T01:59:35.529Z,67.80
2019-04-22T02:00:11.411Z,67.90
2019-04-22T02:01:04.906Z,67.70
2019-04-22T02:01:30.652Z,67.80
2019-04-22T02:02:02.591Z,67.80
2019-04-22T02:02:41.822Z,67.90
2019-04-22T02:03:17.232Z,68.00
2019-04-22T02:03:54.613Z,68.00
2019-04-22T02:04:35.388Z,68.00
2019-04-22T02:05:07.325Z,67.90
2019-04-22T02:05:40.242Z,67.90
2019-04-22T02:06:17.232Z,67.80
2019-04-22T02:06:48.501Z,68.00
2019-04-22T02:07:28.098Z,68.30
2019-04-22T02:07:59.480Z,68.30
2019-04-22T02:08:40.891Z,68.30
2019-04-22T02:09:44.752Z,68.20
2019-04-22T02:10:26.927Z,68.20
2019-04-22T02:10:57.626Z,68.20
2019-04-22T02:11:35.173Z,68.10
2019-04-22T02:12:05.835Z,68.60
2019-04-22T02:12:42.627Z,68.30
2019-04-22T02:13:15.839Z,68.90
2019-04-22T02:13:49.338Z,68.30
2019-04-22T02:14:27.639Z,68.50
2019-04-22T02:14:57.853Z,68.40
2019-04-22T02:15:38.013Z,68.40
2019-04-22T02:16:15.222Z,68.50
2019-04-22T02:16:50.140Z,68.60
2019-04-22T02:17:28.633Z,68.90
2019-04-22T02:18:07.825Z,69.10
2019-04-22T02:19:11.658Z,69.40
2019-04-22T02:19:48.110Z,68.90
2019-04-22T02:20:18.819Z,69.00
2019-04-22T02:20:48.634Z,69.20
2019-04-22T02:21:28.590Z,69.30
2019-04-22T02:22:02.181Z,69.20
2019-04-22T02:23:40.167Z,69.50
2019-04-22T02:24:02.418Z,69.40
2019-04-22T02:24:35.241Z,69.20
2019-04-22T02:24:58.609Z,68.90
2019-04-22T02:25:44.741Z,68.90
2019-04-22T02:26:22.807Z,69.00
2019-04-22T02:27:09.243Z,69.20
2019-04-22T02:27:29.338Z,69.20
2019-04-22T02:28:11.244Z,69.20
2019-04-22T02:29:20.765Z,69.80
2019-04-22T02:29:47.758Z,69.80
2019-04-22T02:30:22.473Z,70.00
2019-04-22T02:31:20.133Z,70.00
2019-04-22T02:33:18.459Z,70.10
2019-04-22T02:33:43.247Z,70.00
2019-04-22T02:34:11.398Z,70.20
2019-04-22T02:35:57.765Z,70.60
2019-04-22T02:36:22.879Z,70.30
2019-04-22T02:37:23.436Z,70.10
2019-04-22T02:38:07.725Z,70.40
2019-04-22T02:38:51.893Z,70.70
2019-04-22T02:39:52.824Z,70.70
2019-04-22T02:40:35.415Z,70.50
2019-04-22T02:41:15.988Z,70.60
2019-04-22T02:42:35.332Z,70.50
2019-04-22T02:43:34.144Z,71.40
2019-04-22T02:44:02.070Z,70.30
2019-04-22T02:44:33.237Z,70.20
2019-04-22T02:45:23.116Z,70.20
2019-04-22T02:45:50.468Z,70.30
2019-04-22T02:47:11.929Z,71.50
2019-04-22T02:47:20.622Z,71.10
2019-04-22T02:47:59.144Z,71.00
2019-04-22T02:49:39.743Z,70.80
2019-04-22T02:50:19.771Z,70.90
2019-04-22T02:51:04.305Z,71.20
2019-04-22T02:52:06.874Z,70.80
2019-04-22T02:53:13.844Z,70.50
2019-04-22T02:55:04.924Z,71.30
2019-04-22T02:55:32.307Z,71.10
2019-04-22T02:56:25.076Z,70.50
2019-04-22T02:56:39.892Z,70.80
2019-04-22T02:57:35.460Z,70.40
2019-04-22T02:57:52.666Z,70.50
2019-04-22T02:58:37.356Z,70.30
2019-04-22T02:59:39.574Z,69.90
2019-04-22T03:00:21.539Z,69.60
2019-04-22T03:00:58.882Z,69.60
2019-04-22T03:01:30.068Z,69.60
2019-04-22T03:01:54.053Z,70.10
2019-04-22T03:03:03.900Z,70.40
2019-04-22T03:03:27.577Z,70.50
2019-04-22T03:04:20.541Z,70.90
2019-04-22T03:05:00.618Z,70.50
2019-04-22T03:05:37.281Z,70.80
2019-04-22T03:06:15.946Z,70.70
2019-04-22T03:07:12.477Z,71.00
2019-04-22T03:08:02.447Z,71.00
2019-04-22T03:08:36.777Z,70.80
2019-04-22T03:09:03.424Z,70.40
2019-04-22T03:11:24.823Z,71.00
2019-04-22T03:12:16.371Z,71.20
2019-04-22T03:13:21.349Z,71.40
2019-04-22T03:13:57.491Z,71.60
2019-04-22T03:14:35.634Z,71.70
2019-04-22T03:15:35.661Z,71.40
2019-04-22T03:16:44.589Z,72.00
2019-04-22T03:17:20.652Z,72.00
2019-04-22T03:18:38.330Z,72.00
2019-04-22T03:19:17.767Z,72.00
2019-04-22T03:19:50.593Z,72.20
2019-04-22T03:20:15.576Z,72.30
2019-04-22T03:20:58.796Z,72.60
2019-04-22T03:21:29.982Z,72.60
2019-04-22T03:22:00.763Z,72.70
2019-04-22T03:22:38.903Z,72.80
2019-04-22T03:23:56.422Z,73.10
2019-04-22T03:24:35.778Z,73.10
2019-04-22T03:25:36.528Z,73.00
2019-04-22T03:26:50.436Z,72.50
2019-04-22T03:27:16.232Z,72.70
2019-04-22T03:27:48.379Z,72.80
2019-04-22T03:28:44.300Z,72.30
2019-04-22T03:32:59.349Z,71.50
2019-04-22T03:33:19.886Z,71.50
2019-04-22T03:33:55.137Z,71.50
2019-04-22T03:36:06.727Z,71.50
2019-04-22T03:37:04.560Z,71.50
2019-04-22T03:37:23.141Z,72.00
2019-04-22T03:37:55.864Z,72.20
2019-04-22T03:38:29.414Z,72.40
2019-04-22T03:39:15.416Z,72.80
2019-04-22T03:39:45.482Z,73.10
2019-04-22T03:41:15.219Z,73.70
2019-04-22T03:41:36.822Z,74.10
2019-04-22T03:42:45.786Z,74.60
2019-04-22T03:43:54.122Z,75.20
2019-04-22T03:45:00.884Z,75.60
2019-04-22T03:46:01.665Z,76.10
2019-04-22T03:46:57.455Z,76.50
2019-04-22T03:47:21.693Z,76.30
2019-04-22T03:48:17.584Z,76.00
2019-04-22T03:49:12.139Z,76.30
2019-04-22T03:49:45.666Z,76.40
2019-04-22T03:50:15.697Z,76.30
2019-04-22T03:51:33.778Z,76.30
2019-04-22T03:52:20.787Z,76.90
2019-04-22T03:53:09.848Z,77.20
2019-04-22T03:53:38.716Z,77.30
2019-04-22T03:54:29.217Z,77.40
2019-04-22T03:54:53.891Z,77.50
2019-04-22T03:55:26.077Z,77.70
2019-04-22T03:56:03.996Z,77.80
2019-04-22T03:57:08.114Z,77.60
2019-04-22T03:57:26.464Z,77.70
2019-04-22T03:58:11.025Z,77.40
2019-04-22T03:58:57.099Z,77.50
2019-04-22T03:59:33.670Z,77.60
2019-04-22T04:00:21.928Z,77.70
2019-04-22T04:00:47.464Z,77.90
2019-04-22T04:01:29.592Z,77.70
2019-04-22T04:02:07.841Z,77.80
2019-04-22T04:02:38.656Z,78.00
2019-04-22T04:03:51.300Z,78.20
2019-04-22T04:04:45.601Z,78.40
2019-04-22T04:04:49.536Z,78.60
2019-04-22T04:05:43.974Z,79.00
2019-04-22T04:05:59.505Z,79.10
2019-04-22T04:06:54.168Z,79.10
2019-04-22T04:07:40.700Z,79.10
2019-04-22T04:07:56.932Z,79.40
2019-04-22T04:08:33.419Z,79.60
2019-04-22T04:09:09.033Z,79.70
2019-04-22T04:09:39.992Z,79.70
2019-04-22T04:10:25.238Z,79.80
2019-04-22T04:11:06.988Z,79.80
2019-04-22T04:11:35.066Z,79.60
2019-04-22T04:12:37.751Z,79.10
2019-04-22T04:13:52.175Z,79.30
2019-04-22T04:14:26.871Z,79.50
2019-04-22T04:15:05.410Z,79.70
2019-04-22T04:16:07.929Z,79.50
2019-04-22T04:16:49.896Z,79.70
2019-04-22T04:17:53.467Z,79.90
2019-04-22T04:18:19.214Z,80.10
2019-04-22T04:21:57.675Z,79.60
2019-04-22T04:22:56.141Z,79.30
2019-04-22T04:24:01.376Z,79.30
2019-04-22T04:25:42.786Z,78.50
2019-04-22T04:26:05.225Z,78.90
2019-04-22T04:27:03.295Z,78.70
2019-04-22T04:27:30.883Z,78.50
2019-04-22T04:28:53.262Z,79.20
2019-04-22T04:29:17.167Z,79.60
2019-04-22T04:32:07.242Z,79.70
2019-04-22T04:33:04.887Z,79.00
2019-04-22T04:34:29.765Z,79.00
2019-04-22T04:35:40.535Z,78.20
2019-04-22T04:36:02.644Z,77.80
2019-04-22T04:36:42.546Z,78.30
2019-04-22T04:37:38.742Z,79.00
2019-04-22T04:38:21.164Z,78.50
2019-04-22T04:39:34.147Z,78.00
2019-04-22T04:40:12.492Z,78.20
2019-04-22T04:40:46.095Z,78.40
2019-04-22T04:42:58.668Z,78.30
2019-04-22T04:43:50.420Z,77.70
2019-04-22T04:45:40.507Z,78.10
2019-04-22T04:46:09.975Z,78.20
2019-04-22T04:47:11.600Z,77.40
2019-04-22T04:47:47.769Z,76.70
2019-04-22T04:48:21.005Z,76.50
2019-04-22T04:49:00.486Z,75.80
2019-04-22T04:50:41.477Z,76.10
2019-04-22T04:51:35.352Z,75.80
2019-04-22T04:52:27.709Z,75.20
2019-04-22T04:52:38.660Z,75.00
2019-04-22T04:53:06.303Z,75.20
2019-04-22T04:54:48.464Z,75.10
2019-04-22T04:55:24.452Z,74.70
2019-04-22T04:55:59.841Z,74.80
2019-04-22T04:56:36.270Z,73.30
2019-04-22T04:57:07.474Z,73.00
2019-04-22T04:58:25.752Z,70.80
2019-04-22T04:59:11.930Z,70.00
2019-04-22T05:00:48.607Z,68.00
2019-04-22T05:01:11.000Z,67.80
2019-04-22T05:03:08.333Z,64.60
2019-04-22T05:03:39.750Z,62.50
2019-04-22T05:04:14.222Z,62.40
2019-04-22T05:04:59.282Z,62.20
2019-04-22T05:05:16.815Z,61.50
2019-04-22T05:05:54.724Z,60.10
2019-04-22T05:07:17.695Z,59.30
2019-04-22T05:08:19.335Z,58.10
2019-04-22T05:09:00.878Z,56.10
2019-04-22T05:09:22.502Z,55.20
2019-04-22T05:10:00.588Z,55.10
2019-04-22T05:10:53.565Z,54.90
2019-04-22T05:11:16.178Z,54.60
2019-04-22T05:11:52.111Z,54.60
2019-04-22T05:13:33.511Z,51.90
2019-04-22T05:14:17.213Z,51.90
2019-04-22T05:14:44.632Z,51.50
2019-04-22T05:15:19.227Z,50.50
2019-04-22T05:16:03.182Z,50.50
2019-04-22T05:17:07.536Z,50.70
2019-04-22T05:18:44.803Z,48.20
2019-04-22T05:19:23.951Z,47.70
2019-04-22T05:19:56.820Z,48.00
2019-04-22T05:21:14.760Z,48.70
2019-04-22T05:21:40.181Z,47.20
2019-04-22T05:22:15.260Z,46.80
2019-04-22T05:22:44.765Z,46.30
2019-04-22T05:24:02.354Z,45.60
2019-04-22T05:24:35.988Z,45.70
2019-04-22T05:25:19.056Z,45.80
2019-04-22T05:25:41.133Z,44.60
2019-04-22T05:26:27.924Z,43.60
2019-04-22T05:27:11.303Z,43.60
2019-04-22T05:28:20.416Z,43.80
2019-04-22T05:28:44.895Z,44.30
2019-04-22T05:29:27.784Z,44.50
2019-04-22T05:30:34.236Z,43.90
2019-04-22T05:31:08.703Z,44.00
2019-04-22T05:31:45.967Z,43.30
2019-04-22T05:32:17.508Z,43.70
2019-04-22T05:32:47.368Z,43.40
2019-04-22T05:33:33.033Z,43.10
2019-04-22T05:34:04.413Z,43.10
2019-04-22T05:34:36.562Z,43.00
2019-04-22T05:35:14.339Z,43.40
2019-04-22T05:35:49.319Z,44.00
2019-04-22T05:37:00.674Z,44.00
2019-04-22T05:37:34.937Z,43.50
2019-04-22T05:38:09.930Z,44.00
2019-04-22T05:38:49.386Z,44.00
2019-04-22T05:39:16.785Z,44.00
2019-04-22T05:40:04.456Z,44.20
2019-04-22T05:41:02.613Z,44.30
2019-04-22T05:41:41.521Z,45.10
2019-04-22T05:42:51.512Z,44.60
2019-04-22T05:43:27.261Z,44.00
2019-04-22T05:44:03.235Z,43.70
2019-04-22T05:45:17.256Z,44.60
2019-04-22T05:45:52.738Z,44.50
2019-04-22T05:46:22.458Z,43.70
2019-04-22T05:47:01.023Z,43.70
2019-04-22T05:47:35.230Z,43.60
2019-04-22T05:48:13.662Z,44.20
2019-04-22T05:48:43.992Z,45.10
2019-04-22T05:49:19.327Z,45.00
2019-04-22T05:49:55.268Z,45.60
2019-04-22T05:50:32.661Z,45.20
2019-04-22T05:51:01.030Z,45.60
2019-04-22T05:51:42.046Z,45.80
2019-04-22T05:52:17.253Z,46.00
2019-04-22T05:52:51.101Z,45.70
2019-04-22T05:53:25.766Z,45.60
2019-04-22T05:54:01.483Z,45.70
2019-04-22T05:54:38.996Z,45.90
2019-04-22T05:55:16.705Z,46.00
2019-04-22T05:55:48.922Z,45.80
2019-04-22T05:56:37.167Z,45.80
2019-04-22T05:56:53.379Z,45.30
2019-04-22T05:57:34.431Z,45.30
2019-04-22T05:58:08.678Z,45.80
2019-04-22T05:58:44.978Z,45.70
2019-04-22T05:59:17.960Z,45.40
2019-04-22T06:00:06.302Z,45.30
2019-04-22T06:01:01.638Z,45.60
2019-04-22T06:01:52.030Z,46.90
2019-04-22T06:02:23.535Z,46.70
2019-04-22T06:03:32.905Z,47.30
2019-04-22T06:04:05.325Z,47.60
2019-04-22T06:04:39.130Z,48.00
2019-04-22T06:05:47.281Z,47.70
2019-04-22T06:06:22.624Z,47.40
2019-04-22T06:07:00.530Z,47.10
2019-04-22T06:07:32.286Z,47.30
2019-04-22T06:08:10.291Z,47.70
2019-04-22T06:08:46.908Z,47.90
2019-04-22T06:09:24.847Z,48.50
2019-04-22T06:10:08.218Z,48.90
2019-04-22T06:10:39.580Z,47.70
2019-04-22T06:11:17.348Z,47.70
2019-04-22T06:11:36.152Z,48.10
2019-04-22T06:12:23.516Z,49.10
2019-04-22T06:13:02.216Z,49.10
2019-04-22T06:13:36.706Z,48.30
2019-04-22T06:14:13.905Z,48.80
2019-04-22T06:14:54.250Z,48.70
2019-04-22T06:15:28.861Z,48.80
2019-04-22T06:16:04.317Z,49.10
2019-04-22T06:16:45.715Z,49.10
2019-04-22T06:17:18.355Z,49.20
2019-04-22T06:18:07.955Z,49.40
2019-04-22T06:18:33.405Z,49.60
2019-04-22T06:19:10.113Z,48.90
2019-04-22T06:19:44.831Z,50.10
2019-04-22T06:20:15.877Z,50.80
2019-04-22T06:21:03.696Z,51.40
2019-04-22T06:21:31.310Z,50.90
2019-04-22T06:21:59.159Z,50.40
2019-04-22T06:22:43.162Z,49.60
2019-04-22T06:23:12.664Z,49.70
2019-04-22T06:23:46.813Z,49.80
2019-04-22T06:24:23.281Z,49.80
2019-04-22T06:24:57.281Z,50.50
2019-04-22T06:27:21.968Z,50.30
2019-04-22T06:28:15.826Z,50.60
2019-04-22T06:28:34.865Z,50.70
2019-04-22T06:29:04.650Z,51.20
2019-04-22T06:29:46.251Z,50.40
2019-04-22T06:30:15.397Z,50.20
2019-04-22T06:30:51.213Z,50.80
2019-04-22T06:31:28.345Z,51.10
2019-04-22T06:32:22.328Z,51.00
2019-04-22T06:33:11.307Z,50.20
2019-04-22T06:33:44.309Z,50.30
2019-04-22T06:34:22.390Z,50.60
2019-04-22T06:34:53.079Z,51.00
2019-04-22T06:35:37.960Z,50.60
2019-04-22T06:36:03.407Z,51.10
2019-04-22T06:38:12.503Z,50.90
2019-04-22T06:38:55.889Z,52.10
2019-04-22T06:39:35.710Z,52.70
2019-04-22T06:40:13.068Z,51.50
2019-04-22T06:40:46.851Z,51.40
2019-04-22T06:41:21.191Z,51.60
2019-04-22T06:41:58.932Z,51.40
2019-04-22T06:42:39.394Z,52.00
2019-04-22T06:43:13.719Z,52.40
2019-04-22T06:43:46.736Z,52.00
2019-04-22T06:44:59.952Z,53.60
2019-04-22T06:45:32.272Z,52.20
2019-04-22T06:46:09.826Z,51.50
2019-04-22T06:46:42.728Z,52.00
2019-04-22T06:47:21.088Z,52.40
2019-04-22T06:47:59.113Z,52.50
2019-04-22T06:48:23.702Z,52.90
2019-04-22T06:49:03.269Z,51.20
2019-04-22T06:49:35.185Z,51.10
2019-04-22T06:50:20.953Z,51.20
2019-04-22T06:50:51.006Z,51.90
2019-04-22T06:51:30.999Z,50.60
2019-04-22T06:52:04.495Z,50.70
2019-04-22T06:52:28.131Z,51.10
2019-04-22T06:53:09.036Z,51.10
2019-04-22T06:53:45.411Z,50.90
2019-04-22T06:54:21.845Z,51.30
2019-04-22T06:54:54.294Z,51.10
2019-04-22T06:55:59.682Z,51.30
2019-04-22T06:56:35.643Z,51.70
2019-04-22T06:57:13.190Z,51.70
2019-04-22T06:57:51.215Z,52.30
2019-04-22T06:58:19.984Z,53.00
2019-04-22T06:58:57.780Z,52.80
2019-04-22T06:59:37.756Z,52.70
2019-04-22T07:00:10.610Z,52.20
2019-04-22T07:00:44.499Z,51.80
2019-04-22T07:02:06.473Z,52.50
2019-04-22T07:02:47.185Z,52.80
2019-04-22T07:03:30.398Z,52.40
2019-04-22T07:03:52.352Z,52.70
2019-04-22T07:04:19.715Z,52.60
2019-04-22T07:04:56.517Z,52.50
2019-04-22T07:05:27.905Z,52.20
2019-04-22T07:06:07.377Z,52.40
2019-04-22T07:06:41.580Z,52.90
2019-04-22T07:07:14.176Z,53.50
2019-04-22T07:07:57.373Z,52.80
2019-04-22T07:09:42.719Z,52.40
2019-04-22T07:10:26.787Z,52.30
2019-04-22T07:10:47.741Z,52.10
2019-04-22T07:11:18.766Z,52.90
2019-04-22T07:11:58.819Z,51.30
2019-04-22T07:13:15.163Z,51.00
2019-04-22T07:13:43.267Z,51.30
2019-04-22T07:14:20.384Z,50.80
2019-04-22T07:14:57.649Z,50.80
2019-04-22T07:15:43.849Z,51.00
2019-04-22T07:17:17.473Z,52.10
2019-04-22T07:18:33.040Z,51.60
2019-04-22T07:19:01.884Z,51.10
2019-04-22T07:19:55.853Z,51.90
2019-04-22T07:20:10.632Z,52.60
2019-04-22T07:21:22.214Z,51.80
2019-04-22T07:21:57.155Z,51.60
2019-04-22T07:22:45.507Z,52.30
2019-04-22T07:23:13.843Z,53.20
2019-04-22T07:24:43.824Z,52.70
2019-04-22T07:24:56.131Z,52.60
2019-04-22T07:25:23.559Z,52.10
2019-04-22T07:26:18.919Z,51.90
2019-04-22T07:26:37.238Z,52.30
2019-04-22T07:27:30.676Z,51.60
2019-04-22T07:27:45.998Z,51.50
2019-04-22T07:28:20.269Z,52.10
2019-04-22T07:28:57.515Z,51.00
2019-04-22T07:29:32.724Z,50.40
2019-04-22T07:30:15.390Z,51.00
2019-04-22T07:30:41.062Z,51.60
2019-04-22T07:31:19.003Z,51.60
2019-04-22T07:31:56.283Z,52.10
2019-04-22T07:33:37.706Z,52.40
2019-04-22T07:35:28.973Z,51.50
2019-04-22T07:36:53.591Z,52.60
2019-04-22T07:37:23.370Z,52.40
2019-04-22T07:38:00.583Z,53.10
2019-04-22T07:38:25.714Z,52.40
2019-04-22T07:38:52.723Z,52.20
2019-04-22T07:39:32.570Z,51.40
2019-04-22T07:40:02.234Z,53.10
2019-04-22T07:40:43.975Z,52.80
2019-04-22T07:41:17.290Z,53.10
2019-04-22T07:42:05.529Z,53.20
2019-04-22T07:42:28.245Z,51.20
2019-04-22T07:43:04.318Z,51.00
2019-04-22T07:43:53.063Z,50.60
2019-04-22T07:44:16.555Z,51.20
2019-04-22T07:44:52.855Z,50.90
2019-04-22T07:45:25.482Z,51.30
2019-04-22T07:45:54.937Z,51.60
2019-04-22T07:46:39.030Z,51.50
2019-04-22T07:47:13.442Z,51.40
2019-04-22T07:47:50.033Z,52.90
2019-04-22T07:48:26.542Z,52.00
2019-04-22T07:48:53.943Z,51.20
2019-04-22T07:49:32.254Z,51.70
2019-04-22T07:50:08.243Z,51.20
2019-04-22T07:50:52.742Z,51.50
2019-04-22T07:51:13.301Z,52.30
2019-04-22T07:51:49.855Z,52.50
2019-04-22T07:52:22.920Z,53.50
2019-04-22T07:53:02.914Z,52.70
2019-04-22T07:53:37.062Z,52.70
2019-04-22T07:54:46.764Z,50.10
2019-04-22T07:55:13.449Z,49.70
2019-04-22T07:55:51.848Z,49.90
2019-04-22T07:56:30.533Z,50.70
2019-04-22T07:57:12.137Z,51.20
2019-04-22T07:57:36.822Z,51.90
2019-04-22T07:58:49.072Z,51.70
2019-04-22T08:00:02.887Z,52.40
2019-04-22T08:00:35.712Z,52.80
2019-04-22T08:01:18.510Z,51.90
2019-04-22T08:01:42.294Z,51.90
2019-04-22T08:02:26.200Z,51.30
2019-04-22T08:03:01.355Z,50.10
2019-04-22T08:03:38.196Z,50.00
2019-04-22T08:05:16.894Z,49.20
2019-04-22T08:05:59.447Z,50.10
2019-04-22T08:06:34.625Z,50.00
2019-04-22T08:07:10.962Z,51.30
2019-04-22T08:07:36.530Z,51.40
2019-04-22T08:08:19.896Z,50.10
2019-04-22T08:08:49.056Z,50.50
2019-04-22T08:09:27.744Z,50.00
2019-04-22T08:10:08.469Z,50.40
2019-04-22T08:10:38.661Z,50.70
2019-04-22T08:11:21.857Z,50.50
2019-04-22T08:11:49.866Z,50.30
2019-04-22T08:12:21.675Z,49.70
2019-04-22T08:12:55.031Z,51.10
2019-04-22T08:13:40.683Z,50.70
2019-04-22T08:13:58.740Z,51.20
2019-04-22T08:14:40.845Z,51.40
2019-04-22T08:15:19.724Z,51.40
2019-04-22T08:15:53.678Z,51.50
2019-04-22T08:16:23.560Z,51.40
2019-04-22T08:17:19.282Z,50.70
2019-04-22T08:18:15.168Z,50.40
2019-04-22T08:18:48.443Z,50.80
2019-04-22T08:19:33.689Z,51.00
2019-04-22T08:20:05.541Z,51.40
2019-04-22T08:20:33.943Z,51.00
2019-04-22T08:21:12.342Z,50.60
2019-04-22T08:21:46.078Z,50.30
2019-04-22T08:22:14.375Z,50.00
2019-04-22T08:23:01.116Z,51.20
2019-04-22T08:23:33.944Z,51.40
2019-04-22T08:24:13.066Z,51.40
2019-04-22T08:24:43.311Z,50.70
2019-04-22T08:25:10.539Z,50.40
2019-04-22T08:26:11.190Z,50.20
2019-04-22T08:26:27.413Z,50.50
2019-04-22T08:27:08.721Z,50.80
2019-04-22T08:27:39.491Z,50.10
2019-04-22T08:28:51.737Z,49.50
2019-04-22T08:29:28.564Z,49.00
2019-04-22T08:31:17.985Z,51.30
2019-04-22T08:31:48.601Z,49.50
2019-04-22T08:32:22.423Z,50.10
2019-04-22T08:32:53.327Z,50.90
2019-04-22T08:33:38.197Z,51.40
2019-04-22T08:34:12.189Z,50.30
2019-04-22T08:34:37.069Z,49.80
2019-04-22T08:35:20.205Z,49.70
2019-04-22T08:36:29.179Z,49.70
2019-04-22T08:37:24.029Z,50.30
2019-04-22T08:38:06.839Z,50.60
2019-04-22T08:38:50.730Z,49.20
2019-04-22T08:39:18.880Z,49.40
2019-04-22T08:39:48.600Z,49.40
2019-04-22T08:40:28.830Z,49.40
2019-04-22T08:41:20.886Z,50.00
2019-04-22T08:41:40.305Z,51.30
2019-04-22T08:42:29.525Z,51.70
2019-04-22T08:43:36.382Z,50.80
2019-04-22T08:44:07.664Z,51.00
2019-04-22T08:46:05.620Z,50.10
2019-04-22T08:46:33.082Z,50.20
2019-04-22T08:47:10.993Z,50.60
2019-04-22T08:47:35.950Z,51.80
2019-04-22T08:48:18.089Z,49.60
2019-04-22T08:49:39.516Z,50.40
2019-04-22T08:50:41.324Z,49.50
2019-04-22T08:51:16.813Z,50.00
2019-04-22T08:51:42.838Z,49.70
2019-04-22T08:52:28.842Z,49.80
2019-04-22T08:53:05.761Z,50.40
2019-04-22T08:53:41.504Z,51.10
2019-04-22T08:54:13.240Z,52.40
2019-04-22T08:55:04.417Z,50.00
2019-04-22T08:55:24.369Z,49.40
2019-04-22T08:56:10.470Z,49.50
2019-04-22T08:58:03.702Z,50.00
2019-04-22T08:58:57.316Z,51.20
2019-04-22T08:59:21.815Z,51.30
2019-04-22T09:00:02.368Z,50.40
2019-04-22T09:00:47.942Z,49.80
2019-04-22T09:01:11.339Z,49.40
2019-04-22T09:01:46.868Z,49.60
2019-04-22T09:02:27.676Z,49.90
2019-04-22T09:02:59.542Z,49.50
2019-04-22T09:03:36.101Z,48.70
2019-04-22T09:04:42.078Z,50.10
2019-04-22T09:05:22.790Z,49.60
2019-04-22T09:06:11.228Z,50.10